createdAt,value
2023-05-19T00:01:10.048Z,56.29
2023-05-19T00:03:40.825Z,56.45
2023-05-19T00:06:11.649Z,56.88
2023-05-19T00:08:43.844Z,56.68
2023-05-19T00:11:14.028Z,57.46
2023-05-19T00:13:45.557Z,57.22
2023-05-19T00:16:16.657Z,57.25
2023-05-19T00:18:47.659Z,57.55
2023-05-19T00:21:18.056Z,57.69
2023-05-19T00:23:49.975Z,57.30
2023-05-19T00:26:19.356Z,57.60
2023-05-19T00:28:48.720Z,57.60
2023-05-19T00:31:18.313Z,57.75
2023-05-19T00:33:48.026Z,57.98
2023-05-19T00:36:17.411Z,57.76
2023-05-19T00:38:46.751Z,58.18
2023-05-19T00:41:18.795Z,57.96
2023-05-19T00:43:48.364Z,59.02
2023-05-19T00:46:17.760Z,58.49
2023-05-19T00:48:47.395Z,58.70
2023-05-19T00:51:17.396Z,58.42
2023-05-19T00:53:51.129Z,58.12
2023-05-19T00:56:23.837Z,59.14
2023-05-19T00:58:54.556Z,58.08
2023-05-19T01:01:26.986Z,58.92
2023-05-19T01:03:56.959Z,59.39
2023-05-19T01:06:27.898Z,59.53
2023-05-19T01:08:57.519Z,59.66
2023-05-19T01:11:29.527Z,59.77
2023-05-19T01:13:59.117Z,59.36
2023-05-19T01:16:34.077Z,59.71
2023-05-19T01:19:11.095Z,60.06
2023-05-19T01:22:13.189Z,59.93
2023-05-19T01:25:07.731Z,60.03
2023-05-19T01:28:08.512Z,60.66
2023-05-19T01:30:43.401Z,59.10
2023-05-19T01:33:14.706Z,59.43
2023-05-19T01:35:45.878Z,59.83
2023-05-19T01:38:18.648Z,60.97
2023-05-19T01:40:50.928Z,59.59
2023-05-19T01:43:22.501Z,59.11
2023-05-19T01:45:55.787Z,58.99
2023-05-19T01:48:26.048Z,60.96
2023-05-19T01:50:57.392Z,60.78
2023-05-19T01:53:27.012Z,60.38
2023-05-19T01:55:58.858Z,59.44
2023-05-19T01:58:40.684Z,59.53
2023-05-19T02:01:22.871Z,59.31
2023-05-19T02:04:05.914Z,59.60
2023-05-19T02:06:42.693Z,60.02
2023-05-19T02:09:18.783Z,59.54
2023-05-19T02:11:55.008Z,59.30
2023-05-19T02:14:32.523Z,59.11
2023-05-19T02:17:07.158Z,59.04
2023-05-19T02:19:42.213Z,59.28
2023-05-19T02:22:11.625Z,58.89
2023-05-19T02:24:41.518Z,59.06
2023-05-19T02:27:10.900Z,59.19
2023-05-19T02:29:40.281Z,59.23
2023-05-19T02:32:14.628Z,59.28
2023-05-19T02:34:45.696Z,59.50
2023-05-19T02:37:15.448Z,59.06
2023-05-19T02:39:45.090Z,59.44
2023-05-19T02:42:17.807Z,59.50
2023-05-19T02:44:47.185Z,59.74
2023-05-19T02:47:19.170Z,59.68
2023-05-19T02:49:48.775Z,59.33
2023-05-19T02:52:18.140Z,59.57
2023-05-19T02:54:47.675Z,59.51
2023-05-19T02:57:17.077Z,59.28
2023-05-19T02:59:46.652Z,59.53
2023-05-19T03:02:16.164Z,59.69
2023-05-19T03:04:48.152Z,59.84
2023-05-19T03:07:17.799Z,60.11
2023-05-19T03:09:47.139Z,59.87
2023-05-19T03:12:16.484Z,59.66
2023-05-19T03:14:45.885Z,59.51
2023-05-19T03:17:15.390Z,60.04
2023-05-19T03:19:44.807Z,60.13
2023-05-19T03:22:18.648Z,60.35
2023-05-19T03:24:51.163Z,60.69
2023-05-19T03:27:20.552Z,60.81
2023-05-19T03:29:49.903Z,60.38
2023-05-19T03:32:19.284Z,60.36
2023-05-19T03:34:48.714Z,60.09
2023-05-19T03:37:20.651Z,60.42
2023-05-19T03:39:50.046Z,60.77
2023-05-19T03:42:19.777Z,60.54
2023-05-19T03:44:49.107Z,60.31
2023-05-19T03:47:18.750Z,60.55
2023-05-19T03:49:48.113Z,60.44
2023-05-19T03:52:20.077Z,60.55
2023-05-19T03:54:49.465Z,60.43
2023-05-19T03:57:18.962Z,60.38
2023-05-19T03:59:48.359Z,60.59
2023-05-19T04:02:17.816Z,60.51
2023-05-19T04:04:47.286Z,61.91
2023-05-19T04:07:16.782Z,61.41
2023-05-19T04:09:48.790Z,62.00
2023-05-19T04:12:18.191Z,62.92
2023-05-19T04:14:47.544Z,63.04
2023-05-19T04:17:17.098Z,62.22
2023-05-19T04:19:46.552Z,63.48
2023-05-19T04:22:16.151Z,62.84
2023-05-19T04:24:49.093Z,63.29
2023-05-19T04:27:18.532Z,64.19
2023-05-19T04:29:49.766Z,64.50
2023-05-19T04:32:20.172Z,64.72
2023-05-19T04:34:49.513Z,65.02
2023-05-19T04:37:20.161Z,64.82
2023-05-19T04:39:52.366Z,65.21
2023-05-19T04:42:21.950Z,64.65
2023-05-19T04:44:52.019Z,65.33
2023-05-19T04:47:21.715Z,64.77
2023-05-19T04:49:55.649Z,66.12
2023-05-19T04:52:26.080Z,65.37
2023-05-19T04:54:58.054Z,66.59
2023-05-19T04:57:27.566Z,67.93
2023-05-19T05:00:00.123Z,67.66
2023-05-19T05:02:30.178Z,67.44
2023-05-19T05:04:59.609Z,67.40
2023-05-19T05:07:31.597Z,68.73
2023-05-19T05:10:04.282Z,68.13
2023-05-19T05:12:36.094Z,68.39
2023-05-19T05:15:07.120Z,68.69
2023-05-19T05:17:37.953Z,68.74
2023-05-19T05:20:08.798Z,67.88
2023-05-19T05:22:38.898Z,66.96
2023-05-19T05:25:13.115Z,66.94
2023-05-19T05:27:42.526Z,67.22
2023-05-19T05:30:12.213Z,67.21
2023-05-19T05:32:41.684Z,66.97
2023-05-19T05:35:12.205Z,67.54
2023-05-19T05:37:41.553Z,67.74
2023-05-19T05:40:15.708Z,68.76
2023-05-19T05:42:45.690Z,68.98
2023-05-19T05:45:15.029Z,69.71
2023-05-19T05:47:45.030Z,69.67
2023-05-19T05:50:16.212Z,69.53
2023-05-19T05:52:49.592Z,69.84
2023-05-19T05:55:23.185Z,70.66
2023-05-19T05:57:53.164Z,70.71
2023-05-19T06:00:23.784Z,70.74
2023-05-19T06:02:54.093Z,71.76
2023-05-19T06:05:23.737Z,71.00
2023-05-19T06:07:53.131Z,71.45
2023-05-19T06:10:25.417Z,71.46
2023-05-19T06:12:54.778Z,70.60
2023-05-19T06:15:24.628Z,71.29
2023-05-19T06:17:54.869Z,70.72
2023-05-19T06:20:24.343Z,71.36
2023-05-19T06:22:53.738Z,69.89
2023-05-19T06:25:26.030Z,71.06
2023-05-19T06:27:55.381Z,70.42
2023-05-19T06:30:24.782Z,70.12
2023-05-19T06:32:54.340Z,70.40
2023-05-19T06:35:23.753Z,68.80
2023-05-19T06:37:53.702Z,69.76
2023-05-19T06:40:25.871Z,69.58
2023-05-19T06:42:55.201Z,69.92
2023-05-19T06:45:24.541Z,69.18
2023-05-19T06:47:54.644Z,69.28
2023-05-19T06:50:24.122Z,69.25
2023-05-19T06:52:53.720Z,69.09
2023-05-19T06:55:26.008Z,68.65
2023-05-19T06:57:55.364Z,68.21
2023-05-19T07:00:25.134Z,67.61
2023-05-19T07:02:57.531Z,68.29
2023-05-19T07:05:26.952Z,66.59
2023-05-19T07:07:56.374Z,67.04
2023-05-19T07:10:28.351Z,66.19
2023-05-19T07:12:58.235Z,65.56
2023-05-19T07:15:27.587Z,65.79
2023-05-19T07:17:57.089Z,65.08
2023-05-19T07:20:26.482Z,65.44
2023-05-19T07:22:56.055Z,65.29
2023-05-19T07:25:31.213Z,64.45
2023-05-19T07:28:00.758Z,63.39
2023-05-19T07:30:30.917Z,63.29
2023-05-19T07:33:00.672Z,63.59
2023-05-19T07:35:30.103Z,64.90
2023-05-19T07:37:59.463Z,63.96
2023-05-19T07:40:31.890Z,62.22
2023-05-19T07:43:01.397Z,62.92
2023-05-19T07:45:30.817Z,62.59
2023-05-19T07:48:00.234Z,62.66
2023-05-19T07:50:29.902Z,63.33
2023-05-19T07:52:59.311Z,61.87
2023-05-19T07:55:31.417Z,62.09
2023-05-19T07:58:00.784Z,61.31
2023-05-19T08:00:30.230Z,61.67
2023-05-19T08:03:00.032Z,63.42
2023-05-19T08:05:29.982Z,63.03
2023-05-19T08:07:59.622Z,62.44
2023-05-19T08:10:31.750Z,60.85
2023-05-19T08:13:03.737Z,61.20
2023-05-19T08:15:33.131Z,61.48
2023-05-19T08:18:03.524Z,61.83
2023-05-19T08:20:34.270Z,60.04
2023-05-19T08:23:04.776Z,59.55
2023-05-19T08:25:36.731Z,61.07
2023-05-19T08:28:06.685Z,61.30
2023-05-19T08:30:36.159Z,61.20
2023-05-19T08:33:05.649Z,61.61
2023-05-19T08:35:35.072Z,60.34
2023-05-19T08:38:04.427Z,58.97
2023-05-19T08:40:38.947Z,59.30
2023-05-19T08:43:08.337Z,58.72
2023-05-19T08:45:38.816Z,58.17
2023-05-19T08:48:09.491Z,59.36
2023-05-19T08:50:42.754Z,59.03
2023-05-19T08:53:31.807Z,58.31
2023-05-19T08:56:13.418Z,58.84
2023-05-19T08:58:44.280Z,59.11
2023-05-19T09:01:17.107Z,57.52
2023-05-19T09:03:50.028Z,58.42
2023-05-19T09:06:20.249Z,58.18
2023-05-19T09:08:49.868Z,56.81
2023-05-19T09:11:22.695Z,58.72
2023-05-19T09:13:52.441Z,60.44
2023-05-19T09:16:22.106Z,59.14
2023-05-19T09:18:58.808Z,59.62
2023-05-19T09:21:33.109Z,57.82
2023-05-19T09:24:08.422Z,60.39
2023-05-19T09:26:45.073Z,56.93
2023-05-19T09:29:15.515Z,56.57
2023-05-19T09:31:52.009Z,57.23
2023-05-19T09:34:23.278Z,56.49
2023-05-19T09:36:53.583Z,55.86
2023-05-19T09:39:25.283Z,55.58
2023-05-19T09:42:00.306Z,55.42
2023-05-19T09:44:31.451Z,55.74
2023-05-19T09:47:02.297Z,54.14
2023-05-19T09:49:33.313Z,55.50
2023-05-19T09:52:06.216Z,56.67
2023-05-19T09:54:37.468Z,55.07
2023-05-19T09:57:09.607Z,55.38
2023-05-19T09:59:39.410Z,55.34
2023-05-19T10:02:12.003Z,54.52
2023-05-19T10:04:41.966Z,55.03
2023-05-19T10:07:15.148Z,54.66
2023-05-19T10:09:45.462Z,55.26
2023-05-19T10:12:17.749Z,53.70
2023-05-19T10:14:47.287Z,54.73
2023-05-19T10:17:17.577Z,54.44
2023-05-19T10:19:47.971Z,53.43
2023-05-19T10:22:17.385Z,54.06
2023-05-19T10:24:46.764Z,53.46
2023-05-19T10:27:20.556Z,53.71
2023-05-19T10:29:54.458Z,53.84
2023-05-19T10:32:27.551Z,53.10
2023-05-19T10:35:11.954Z,52.05
2023-05-19T10:37:48.425Z,53.03
2023-05-19T10:40:24.361Z,53.95
2023-05-19T10:43:14.487Z,52.38
2023-05-19T10:45:50.372Z,54.11
2023-05-19T10:48:23.157Z,54.19
2023-05-19T10:50:57.045Z,54.13
2023-05-19T10:53:34.979Z,54.50
2023-05-19T10:56:07.136Z,53.26
2023-05-19T10:58:53.146Z,53.30
2023-05-19T11:01:24.998Z,52.01
2023-05-19T11:03:57.337Z,51.87
2023-05-19T11:06:32.114Z,52.34
2023-05-19T11:09:05.122Z,52.54
2023-05-19T11:11:48.158Z,53.42
2023-05-19T11:14:21.627Z,53.16
2023-05-19T11:16:52.099Z,52.99
2023-05-19T11:19:22.848Z,53.55
2023-05-19T11:21:55.146Z,53.14
2023-05-19T11:24:38.555Z,53.78
2023-05-19T11:27:26.085Z,54.16
2023-05-19T11:30:00.252Z,53.49
2023-05-19T11:32:33.696Z,53.61
2023-05-19T11:35:03.772Z,53.23
2023-05-19T11:37:35.192Z,53.71
2023-05-19T11:40:05.527Z,53.88
2023-05-19T11:42:35.088Z,52.98
2023-05-19T11:45:08.140Z,54.48
2023-05-19T11:47:50.818Z,52.93
2023-05-19T11:50:27.559Z,53.51
2023-05-19T11:52:57.867Z,53.04
2023-05-19T11:55:27.596Z,52.82
2023-05-19T11:58:04.998Z,53.01
2023-05-19T12:00:42.136Z,52.93
2023-05-19T12:03:12.132Z,53.34
2023-05-19T12:05:47.627Z,53.98
2023-05-19T12:08:19.207Z,53.78
2023-05-19T12:10:51.271Z,53.57
2023-05-19T12:13:22.727Z,54.60
2023-05-19T12:15:56.128Z,54.19
2023-05-19T12:18:25.682Z,53.36
2023-05-19T12:20:55.302Z,54.27
2023-05-19T12:23:25.565Z,53.51
2023-05-19T12:25:55.698Z,53.28
2023-05-19T12:28:25.084Z,52.74
2023-05-19T12:30:58.682Z,52.97
2023-05-19T12:33:28.447Z,53.53
2023-05-19T12:35:57.830Z,53.23
2023-05-19T12:38:27.230Z,53.39
2023-05-19T12:40:56.696Z,53.79
2023-05-19T12:43:26.750Z,54.27
2023-05-19T12:45:58.840Z,54.55
2023-05-19T12:48:28.661Z,54.42
2023-05-19T12:50:58.338Z,55.01
2023-05-19T12:53:29.711Z,53.56
2023-05-19T12:55:59.065Z,54.01
2023-05-19T12:58:28.457Z,53.52
2023-05-19T13:01:05.660Z,54.05
2023-05-19T13:03:36.026Z,53.71
2023-05-19T13:06:05.936Z,52.77
2023-05-19T13:08:35.294Z,53.37
2023-05-19T13:11:04.685Z,53.45
2023-05-19T13:13:34.220Z,53.55
2023-05-19T13:16:06.426Z,54.36
2023-05-19T13:18:37.803Z,54.45
2023-05-19T13:21:08.266Z,54.04
2023-05-19T13:23:37.797Z,53.74
2023-05-19T13:26:08.060Z,53.80
2023-05-19T13:28:37.645Z,53.88
2023-05-19T13:31:09.650Z,53.84
2023-05-19T13:33:39.050Z,53.82
2023-05-19T13:36:09.316Z,54.20
2023-05-19T13:38:38.695Z,54.43
2023-05-19T13:41:09.466Z,54.65
2023-05-19T13:43:40.157Z,54.36
2023-05-19T13:46:12.530Z,53.81
2023-05-19T13:48:42.064Z,54.04
2023-05-19T13:51:12.302Z,54.19
2023-05-19T13:53:42.474Z,53.89
2023-05-19T13:56:12.454Z,54.49
2023-05-19T13:58:41.814Z,54.11
2023-05-19T14:01:14.164Z,54.85
2023-05-19T14:03:43.691Z,55.15
2023-05-19T14:06:13.177Z,56.47
2023-05-19T14:08:46.166Z,56.84
2023-05-19T14:11:20.372Z,57.12
2023-05-19T14:13:52.869Z,56.75
2023-05-19T14:16:26.525Z,56.68
2023-05-19T14:18:56.121Z,56.10
2023-05-19T14:21:25.619Z,56.64
2023-05-19T14:23:55.015Z,57.36
2023-05-19T14:26:24.467Z,58.08
2023-05-19T14:28:53.951Z,57.78
2023-05-19T14:31:26.318Z,57.13
2023-05-19T14:33:56.142Z,56.81
2023-05-19T14:36:25.546Z,57.18
2023-05-19T14:38:54.993Z,57.71
2023-05-19T14:41:24.381Z,57.73
2023-05-19T14:43:53.736Z,58.18
2023-05-19T14:46:25.744Z,58.22
2023-05-19T14:48:55.188Z,57.71
2023-05-19T14:51:24.701Z,57.72
2023-05-19T14:53:54.143Z,57.70
2023-05-19T14:56:23.539Z,57.97
2023-05-19T14:58:52.948Z,58.54
2023-05-19T15:01:22.417Z,58.60
2023-05-19T15:03:54.585Z,58.92
2023-05-19T15:06:23.977Z,59.35
2023-05-19T15:08:53.330Z,58.96
2023-05-19T15:11:22.793Z,59.22
2023-05-19T15:13:52.159Z,59.13
2023-05-19T15:16:21.556Z,58.88
2023-05-19T15:18:51.588Z,59.22
2023-05-19T15:21:23.640Z,59.00
2023-05-19T15:23:53.011Z,59.74
2023-05-19T15:26:22.538Z,59.77
2023-05-19T15:28:51.888Z,59.79
2023-05-19T15:31:22.329Z,59.89
2023-05-19T15:33:51.753Z,59.65
2023-05-19T15:36:24.186Z,60.03
2023-05-19T15:38:53.621Z,60.74
2023-05-19T15:41:22.988Z,59.90
2023-05-19T15:43:53.532Z,60.24
2023-05-19T15:46:23.145Z,59.52
2023-05-19T15:48:52.560Z,59.52
2023-05-19T15:51:25.496Z,60.21
2023-05-19T15:53:55.153Z,58.45
2023-05-19T15:56:24.569Z,58.84
2023-05-19T15:58:53.987Z,58.39
2023-05-19T16:01:24.018Z,59.06
2023-05-19T16:03:53.509Z,59.01
2023-05-19T16:06:27.770Z,58.76
2023-05-19T16:08:57.133Z,59.09
2023-05-19T16:11:26.912Z,59.33
2023-05-19T16:13:56.342Z,58.89
2023-05-19T16:16:25.845Z,59.39
2023-05-19T16:18:55.332Z,59.45
2023-05-19T16:21:27.310Z,60.26
2023-05-19T16:23:56.701Z,60.16
2023-05-19T16:26:26.540Z,60.10
2023-05-19T16:28:55.946Z,59.90
2023-05-19T16:31:25.486Z,60.26
2023-05-19T16:33:54.868Z,59.87
2023-05-19T16:36:27.102Z,59.41
2023-05-19T16:38:56.485Z,59.90
2023-05-19T16:41:26.704Z,60.03
2023-05-19T16:43:56.108Z,59.58
2023-05-19T16:46:25.593Z,59.88
2023-05-19T16:48:54.984Z,59.47
2023-05-19T16:51:27.573Z,59.67
2023-05-19T16:53:56.948Z,60.26
2023-05-19T16:56:26.522Z,60.27
2023-05-19T16:58:56.102Z,60.19
2023-05-19T17:01:25.667Z,60.36
2023-05-19T17:03:55.822Z,60.77
2023-05-19T17:06:27.832Z,60.71
2023-05-19T17:08:57.213Z,60.41
2023-05-19T17:11:26.872Z,60.74
2023-05-19T17:13:56.560Z,61.15
2023-05-19T17:16:26.305Z,60.72
2023-05-19T17:18:56.112Z,61.01
2023-05-19T17:21:28.095Z,60.97
2023-05-19T17:23:57.470Z,60.50
2023-05-19T17:26:26.812Z,60.46
2023-05-19T17:28:56.252Z,61.05
2023-05-19T17:31:26.113Z,60.38
2023-05-19T17:33:55.498Z,59.83
2023-05-19T17:36:24.857Z,59.79
2023-05-19T17:38:57.356Z,60.35
2023-05-19T17:41:26.738Z,60.56
2023-05-19T17:43:56.109Z,61.65
2023-05-19T17:46:25.816Z,60.63
2023-05-19T17:48:55.245Z,60.93
2023-05-19T17:51:25.259Z,61.12
2023-05-19T17:53:58.111Z,60.77
2023-05-19T17:56:28.188Z,61.02
2023-05-19T17:58:58.253Z,60.78
2023-05-19T18:01:28.222Z,61.74
2023-05-19T18:03:58.339Z,61.82
2023-05-19T18:06:29.689Z,61.50
2023-05-19T18:09:03.752Z,61.78
2023-05-19T18:11:33.100Z,61.45
2023-05-19T18:14:06.228Z,62.30
2023-05-19T18:16:36.108Z,62.31
2023-05-19T18:19:06.224Z,62.37
2023-05-19T18:21:35.580Z,62.97
2023-05-19T18:24:08.459Z,62.86
2023-05-19T18:26:41.853Z,62.90
2023-05-19T18:29:11.827Z,62.46
2023-05-19T18:31:41.269Z,62.72
2023-05-19T18:34:10.681Z,62.55
2023-05-19T18:36:40.072Z,63.00
2023-05-19T18:39:12.106Z,63.25
2023-05-19T18:41:42.825Z,64.12
2023-05-19T18:44:12.343Z,63.83
2023-05-19T18:46:42.009Z,64.46
2023-05-19T18:49:11.978Z,63.22
2023-05-19T18:51:42.180Z,63.18
2023-05-19T18:54:14.957Z,63.87
2023-05-19T18:56:44.414Z,63.59
2023-05-19T18:59:14.014Z,63.59
2023-05-19T19:01:43.383Z,63.78
2023-05-19T19:04:14.853Z,63.29
2023-05-19T19:06:44.310Z,64.24
2023-05-19T19:09:16.554Z,62.87
2023-05-19T19:11:46.117Z,63.10
2023-05-19T19:14:15.483Z,63.10
2023-05-19T19:16:46.792Z,63.43
2023-05-19T19:19:16.238Z,63.42
2023-05-19T19:21:45.712Z,63.71
2023-05-19T19:24:19.464Z,63.30
2023-05-19T19:26:48.837Z,62.95
2023-05-19T19:29:18.410Z,63.45
2023-05-19T19:31:48.044Z,64.51
2023-05-19T19:34:19.920Z,64.02
2023-05-19T19:36:49.798Z,64.21
2023-05-19T19:39:21.829Z,64.21
2023-05-19T19:41:51.204Z,64.11
2023-05-19T19:44:22.865Z,64.04
2023-05-19T19:46:52.608Z,65.04
2023-05-19T19:49:22.099Z,64.12
2023-05-19T19:51:51.485Z,65.18
2023-05-19T19:54:23.446Z,64.39
2023-05-19T19:56:53.047Z,64.50
2023-05-19T19:59:22.513Z,64.77
2023-05-19T20:01:51.919Z,65.23
2023-05-19T20:04:21.494Z,64.53
2023-05-19T20:06:51.303Z,65.26
2023-05-19T20:09:25.222Z,65.64
2023-05-19T20:11:54.614Z,65.33
2023-05-19T20:14:24.150Z,65.44
2023-05-19T20:16:53.513Z,65.70
2023-05-19T20:19:25.179Z,64.82
2023-05-19T20:21:54.585Z,64.62
2023-05-19T20:24:26.655Z,64.02
2023-05-19T20:26:56.585Z,63.30
2023-05-19T20:29:26.033Z,63.09
2023-05-19T20:31:57.127Z,62.43
2023-05-19T20:34:26.833Z,61.86
2023-05-19T20:36:56.434Z,61.67
2023-05-19T20:39:28.388Z,61.74
2023-05-19T20:41:57.765Z,60.23
2023-05-19T20:44:27.161Z,60.29
2023-05-19T20:46:57.949Z,59.98
2023-05-19T20:49:27.316Z,59.09
2023-05-19T20:51:56.755Z,59.15
2023-05-19T20:54:28.701Z,58.42
2023-05-19T20:56:58.466Z,58.50
2023-05-19T20:59:27.904Z,57.72
2023-05-19T21:01:57.290Z,57.86
2023-05-19T21:04:26.752Z,57.54
2023-05-19T21:06:56.249Z,56.95
2023-05-19T21:09:28.333Z,56.85
2023-05-19T21:11:57.950Z,56.18
2023-05-19T21:14:27.688Z,54.84
2023-05-19T21:16:59.123Z,55.04
2023-05-19T21:19:28.881Z,55.18
2023-05-19T21:21:58.409Z,55.30
2023-05-19T21:24:31.170Z,55.20
2023-05-19T21:27:00.571Z,54.91
2023-05-19T21:29:29.964Z,55.38
2023-05-19T21:31:59.935Z,55.06
2023-05-19T21:34:29.340Z,55.25
2023-05-19T21:36:58.731Z,54.82
2023-05-19T21:39:30.660Z,55.12
2023-05-19T21:42:00.007Z,54.68
2023-05-19T21:44:29.425Z,55.25
2023-05-19T21:46:58.922Z,55.24
2023-05-19T21:49:28.584Z,54.75
2023-05-19T21:51:58.125Z,54.86
2023-05-19T21:54:30.097Z,54.50
2023-05-19T21:56:59.486Z,55.14
2023-05-19T21:59:28.982Z,55.10
2023-05-19T22:01:59.131Z,54.37
2023-05-19T22:04:31.520Z,54.82
2023-05-19T22:07:01.266Z,54.87
2023-05-19T22:09:33.207Z,54.58
2023-05-19T22:12:03.307Z,54.31
2023-05-19T22:14:32.650Z,54.09
2023-05-19T22:17:05.405Z,54.46
2023-05-19T22:19:34.745Z,53.86
2023-05-19T22:22:13.221Z,53.95
2023-05-19T22:24:45.694Z,53.53
2023-05-19T22:27:15.054Z,53.37
2023-05-19T22:29:44.446Z,53.63
2023-05-19T22:32:18.152Z,53.83
2023-05-19T22:34:47.859Z,53.77
2023-05-19T22:37:17.699Z,54.12
2023-05-19T22:39:49.787Z,53.50
2023-05-19T22:42:19.158Z,53.77
2023-05-19T22:44:48.888Z,53.93
2023-05-19T22:47:18.303Z,54.06
2023-05-19T22:49:47.702Z,54.25
2023-05-19T22:52:17.161Z,53.95
2023-05-19T22:54:49.101Z,53.97
2023-05-19T22:57:19.520Z,53.73
2023-05-19T22:59:48.897Z,53.82
2023-05-19T23:02:18.425Z,53.83
2023-05-19T23:04:47.768Z,54.19
2023-05-19T23:07:17.215Z,54.20
2023-05-19T23:09:49.128Z,54.01
2023-05-19T23:12:18.504Z,54.11
2023-05-19T23:14:47.953Z,54.76
2023-05-19T23:17:17.309Z,54.07
2023-05-19T23:19:46.685Z,54.36
2023-05-19T23:22:16.043Z,53.87
2023-05-19T23:24:45.764Z,54.05
2023-05-19T23:27:17.769Z,54.28
2023-05-19T23:29:51.586Z,53.73
2023-05-19T23:32:21.081Z,54.02
2023-05-19T23:34:51.153Z,54.23
2023-05-19T23:37:20.562Z,54.36
2023-05-19T23:39:49.936Z,54.76
2023-05-19T23:42:21.885Z,54.58
2023-05-19T23:44:51.318Z,54.78
2023-05-19T23:47:20.694Z,54.61
2023-05-19T23:49:50.056Z,54.74
2023-05-19T23:52:19.440Z,54.47
2023-05-19T23:54:49.011Z,54.57
2023-05-19T23:57:18.391Z,54.85
2023-05-19T23:59:50.340Z,54.61
